Time;durP1;ratioP1;P1;durP2;ratioP2;P2;SDS_P1;SDS_P2;PMS_P1;PMS_P2;Temp;Humidity;BMP_temperature;BMP_pressure;BME280_temperature;BME280_humidity;BME280_pressure;Samples;Min_cycle;Max_cycle;Signal;HPM_P1;HPM_P2
2022/10/08 00:00:53;;;;;;;;;;;;;;;13.15;58.79;100685.75;4986888;28;20373;-59
2022/10/08 00:03:19;;;;;;;;;;;;;;;13.05;58.83;100672.84;4976647;28;19961;-61
2022/10/08 00:05:55;;;;;;;;;;;;;;;13.06;59.12;100671.06;4970466;28;19918;-60
2022/10/08 00:08:20;;;;;;;;;;;;;;;12.94;59.20;100671.38;4974152;28;19925;-60
2022/10/08 00:10:50;;;;;;;;;;;;;;;12.88;59.11;100666.25;4977567;28;19922;-61
2022/10/08 00:13:16;;;;;;;;;;;;;;;12.88;59.42;100666.25;4978097;28;19918;-61
2022/10/08 00:15:42;;;;;;;;;;;;;;;12.79;59.11;100662.09;4975582;28;19922;-61
2022/10/08 00:18:07;;;;;;;;;;;;;;;12.75;59.53;100660.44;4980259;28;19956;-60
2022/10/08 00:20:33;;;;;;;;;;;;;;;12.72;59.34;100657.88;4978125;28;19922;-60
2022/10/08 00:23:00;;;;;;;;;;;;;;;12.72;59.37;100656.13;4976031;28;20298;-60
2022/10/08 00:25:26;;;;;;;;;;;;;;;12.72;59.46;100656.13;4977587;28;20509;-60
2022/10/08 00:27:51;;;;;;;;;;;;;;;12.73;59.30;100646.47;4977191;28;20008;-61
2022/10/08 00:30:16;;;;;;;;;;;;;;;12.79;59.43;100646.28;4976398;28;19968;-59
2022/10/08 00:32:41;;;;;;;;;;;;;;;12.81;59.22;100649.75;4978136;28;19928;-60
2022/10/08 00:35:07;;;;;;;;;;;;;;;12.73;59.09;100647.31;4976380;28;20393;-62
2022/10/08 00:37:32;;;;;;;;;;;;;;;12.74;59.26;100642.91;4980122;28;19973;-60
2022/10/08 00:39:58;;;;;;;;;;;;;;;12.55;60.23;100635.47;4981365;28;19965;-61
2022/10/08 00:42:23;;;;;;;;;;;;;;;12.53;60.70;100634.66;4978049;28;19922;-60
2022/10/08 00:44:52;;;;;;;;;;;;;;;12.52;60.65;100632.91;4974703;28;19926;-61
2022/10/08 00:47:34;;;;;;;;;;;;;;;12.60;60.05;100622.16;4974018;28;20417;-60
2022/10/08 00:50:20;;;;;;;;;;;;;;;12.65;59.85;100632.63;4977632;28;19929;-61
2022/10/08 00:52:46;;;;;;;;;;;;;;;12.56;60.44;100623.16;4970712;28;19925;-61
2022/10/08 00:55:13;;;;;;;;;;;;;;;12.59;60.35;100620.44;4976792;28;19918;-61
2022/10/08 00:57:38;;;;;;;;;;;;;;;12.53;60.35;100607.44;4977864;28;19940;-61
2022/10/08 01:00:08;;;;;;;;;;;;;;;12.68;59.55;100620.19;4975612;28;20358;-61
2022/10/08 01:02:34;;;;;;;;;;;;;;;12.77;59.63;100619.09;4989110;28;20057;-61
2022/10/08 01:04:59;;;;;;;;;;;;;;;12.74;59.53;100606.00;4985081;28;20348;-61
2022/10/08 01:07:28;;;;;;;;;;;;;;;12.75;59.20;100619.13;4977159;28;19918;-59
2022/10/08 01:10:05;;;;;;;;;;;;;;;12.74;59.50;100608.63;4974746;28;19969;-61
2022/10/08 01:12:33;;;;;;;;;;;;;;;12.76;59.27;100609.44;4977836;28;19924;-60
2022/10/08 01:15:09;;;;;;;;;;;;;;;12.70;59.15;100609.63;4974386;28;19984;-61
2022/10/08 01:17:40;;;;;;;;;;;;;;;12.62;59.54;100596.66;4987235;28;19925;-60
2022/10/08 01:20:24;;;;;;;;;;;;;;;12.68;59.64;100598.25;4977116;28;20440;-60
2022/10/08 01:22:50;;;;;;;;;;;;;;;12.57;60.74;100599.41;4973672;28;19969;-58
2022/10/08 01:25:33;;;;;;;;;;;;;;;12.60;60.67;100598.44;4974011;28;19929;-61
2022/10/08 01:28:02;;;;;;;;;;;;;;;12.68;61.13;100600.88;4977322;28;19933;-60
2022/10/08 01:30:28;;;;;;;;;;;;;;;12.71;60.79;100591.13;4975254;28;20402;-59
2022/10/08 01:33:01;;;;;;;;;;;;;;;12.71;60.82;100595.53;4976001;28;19918;-60
2022/10/08 01:35:28;;;;;;;;;;;;;;;12.62;61.45;100596.66;4978895;28;19949;-60
2022/10/08 01:37:55;;;;;;;;;;;;;;;12.69;61.96;100597.34;4980264;28;19925;-60
2022/10/08 01:40:24;;;;;;;;;;;;;;;12.74;62.41;100585.78;4981128;28;19958;-62
2022/10/08 01:42:50;;;;;;;;;;;;;;;12.79;62.51;100590.91;4977807;28;19922;-61
2022/10/08 01:45:19;;;;;;;;;;;;;;;12.83;62.49;100589.91;4981045;28;19922;-61
2022/10/08 01:47:46;;;;;;;;;;;;;;;12.97;61.97;100586.91;4979367;28;19925;-62
2022/10/08 01:50:32;;;;;;;;;;;;;;;12.95;62.14;100583.44;4978384;28;20469;-61
2022/10/08 01:53:00;;;;;;;;;;;;;;;12.91;62.48;100585.28;4977563;28;19993;-61
2022/10/08 01:55:33;;;;;;;;;;;;;;;12.90;62.22;100583.56;4981196;28;19917;-62
2022/10/08 01:58:00;;;;;;;;;;;;;;;12.88;62.44;100587.16;4979786;28;19958;-60
2022/10/08 02:00:26;;;;;;;;;;;;;;;12.73;62.85;100581.41;4980855;28;19953;-61
2022/10/08 02:02:53;;;;;;;;;;;;;;;12.78;62.54;100576.00;4979425;28;20330;-59
2022/10/08 02:05:18;;;;;;;;;;;;;;;12.86;62.36;100579.28;4979264;28;19918;-60
2022/10/08 02:07:44;;;;;;;;;;;;;;;12.81;62.75;100571.53;4977632;28;19918;-60
2022/10/08 02:10:11;;;;;;;;;;;;;;;12.76;62.39;100572.53;4975728;28;20008;-60
2022/10/08 02:12:38;;;;;;;;;;;;;;;12.76;62.24;100568.13;4980137;28;19922;-60
2022/10/08 02:15:06;;;;;;;;;;;;;;;12.79;61.93;100569.81;4977607;28;20318;-58
2022/10/08 02:17:31;;;;;;;;;;;;;;;12.78;62.20;100568.97;4990861;28;19980;-60
2022/10/08 02:20:01;;;;;;;;;;;;;;;12.76;62.17;100562.84;4993477;28;20389;-60
2022/10/08 02:22:34;;;;;;;;;;;;;;;12.84;61.81;100565.28;4990217;28;19972;-61
2022/10/08 02:25:03;;;;;;;;;;;;;;;12.85;62.04;100558.22;4984006;28;19917;-61
2022/10/08 02:27:32;;;;;;;;;;;;;;;12.81;62.00;100560.09;4980504;28;19969;-60
2022/10/08 02:30:03;;;;;;;;;;;;;;;12.82;61.58;100567.09;4979204;28;19917;-61
2022/10/08 02:32:35;;;;;;;;;;;;;;;12.80;61.63;100561.00;4977407;28;19925;-61
2022/10/08 02:35:06;;;;;;;;;;;;;;;12.74;62.43;100558.53;4991148;28;19918;-60
2022/10/08 02:37:36;;;;;;;;;;;;;;;12.74;62.12;100556.78;4991665;28;19967;-60
2022/10/08 02:40:03;;;;;;;;;;;;;;;12.70;61.86;100543.72;4992926;28;19925;-60
2022/10/08 02:42:30;;;;;;;;;;;;;;;12.48;62.08;100549.56;4991245;28;19926;-61
2022/10/08 02:45:25;;;;;;;;;;;;;;;12.63;61.91;100548.28;4981513;28;19976;-60
2022/10/08 02:47:53;;;;;;;;;;;;;;;12.57;62.08;100543.19;4922508;29;19919;-61
2022/10/08 02:50:21;;;;;;;;;;;;;;;12.55;62.16;100551.13;4977832;28;19918;-60
2022/10/08 02:52:47;;;;;;;;;;;;;;;12.51;62.09;100544.22;4984620;28;19988;-60
2022/10/08 02:55:31;;;;;;;;;;;;;;;12.41;62.05;100542.75;4991566;28;20365;-60
2022/10/08 02:57:59;;;;;;;;;;;;;;;12.49;61.91;100543.41;4973702;28;20000;-60
2022/10/08 03:00:34;;;;;;;;;;;;;;;12.50;61.93;100544.25;4989044;28;19922;-61
2022/10/08 03:03:22;;;;;;;;;;;;;;;12.40;62.58;100548.03;4980522;28;20397;-60
2022/10/08 03:05:49;;;;;;;;;;;;;;;12.35;62.75;100542.88;4978447;28;19925;-61
2022/10/08 03:08:15;;;;;;;;;;;;;;;12.39;62.72;100541.91;4976503;28;19925;-59
2022/10/08 03:10:42;;;;;;;;;;;;;;;12.35;62.57;100539.41;4975173;28;19972;-60
2022/10/08 03:13:08;;;;;;;;;;;;;;;12.49;62.34;100539.91;4971352;28;20005;-61
2022/10/08 03:15:35;;;;;;;;;;;;;;;12.51;62.45;100536.31;4972764;28;20025;-61
2022/10/08 03:18:02;;;;;;;;;;;;;;;12.51;62.69;100535.44;4970761;28;19922;-61
2022/10/08 03:20:29;;;;;;;;;;;;;;;12.59;62.08;100533.47;4974508;28;19973;-59
2022/10/08 03:22:56;;;;;;;;;;;;;;;12.64;62.16;100541.25;4969199;28;19921;-61
2022/10/08 03:25:22;;;;;;;;;;;;;;;12.70;61.75;100536.66;4974977;28;19937;-61
2022/10/08 03:27:48;;;;;;;;;;;;;;;12.68;62.15;100530.56;4974030;28;19922;-60
2022/10/08 03:30:14;;;;;;;;;;;;;;;12.56;62.46;100530.91;4973122;28;19922;-60
2022/10/08 03:32:39;;;;;;;;;;;;;;;12.75;62.20;100531.25;4973611;28;20936;-61
2022/10/08 03:35:04;;;;;;;;;;;;;;;12.82;61.86;100520.50;4979870;28;19929;-61
2022/10/08 03:37:29;;;;;;;;;;;;;;;12.77;62.31;100527.69;4978883;28;19929;-61
2022/10/08 03:39:55;;;;;;;;;;;;;;;12.74;62.40;100522.50;4973332;28;19984;-61
2022/10/08 03:42:20;;;;;;;;;;;;;;;12.85;62.08;100519.56;4975480;28;19922;-60
2022/10/08 03:44:45;;;;;;;;;;;;;;;12.85;62.04;100518.66;4975335;28;19926;-59
2022/10/08 03:47:11;;;;;;;;;;;;;;;12.78;62.51;100512.72;4977395;28;19938;-60
2022/10/08 03:49:36;;;;;;;;;;;;;;;12.87;62.03;100507.19;4977674;28;19925;-60
2022/10/08 03:52:01;;;;;;;;;;;;;;;12.81;62.21;100513.50;4973659;28;19921;-58
2022/10/08 03:54:27;;;;;;;;;;;;;;;12.80;62.16;100516.16;4973643;28;19929;-60
2022/10/08 03:56:52;;;;;;;;;;;;;;;12.84;62.12;100515.16;4974867;28;19929;-60
2022/10/08 03:59:17;;;;;;;;;;;;;;;12.83;61.95;100522.22;4970984;28;19973;-61
2022/10/08 04:01:42;;;;;;;;;;;;;;;12.88;61.74;100527.34;4975267;28;19930;-60
2022/10/08 04:04:08;;;;;;;;;;;;;;;12.80;61.91;100524.09;4974949;28;19918;-60
2022/10/08 04:06:33;;;;;;;;;;;;;;;12.81;61.70;100510.00;4976524;28;20308;-60
2022/10/08 04:09:00;;;;;;;;;;;;;;;12.72;61.84;100519.03;4973524;28;19926;-59
2022/10/08 04:11:26;;;;;;;;;;;;;;;12.60;62.63;100513.22;4974242;28;19926;-60
2022/10/08 04:13:51;;;;;;;;;;;;;;;12.55;62.57;100510.72;4971135;28;19918;-60
2022/10/08 04:16:17;;;;;;;;;;;;;;;12.53;62.75;100509.94;4975383;28;19937;-60
2022/10/08 04:18:42;;;;;;;;;;;;;;;12.47;62.81;100520.63;4971694;28;20016;-60
2022/10/08 04:21:09;;;;;;;;;;;;;;;12.41;62.83;100513.75;4976405;28;19918;-59
2022/10/08 04:23:35;;;;;;;;;;;;;;;12.51;62.42;100520.50;4980542;28;20613;-61
2022/10/08 04:26:01;;;;;;;;;;;;;;;12.49;62.41;100521.47;4976122;28;19918;-60
2022/10/08 04:28:26;;;;;;;;;;;;;;;12.42;63.13;100523.38;5000325;28;19972;-60
2022/10/08 04:31:03;;;;;;;;;;;;;;;12.45;62.89;100528.56;4980122;28;20341;-59
2022/10/08 04:33:30;;;;;;;;;;;;;;;12.47;62.90;100516.22;4970756;28;20004;-61
2022/10/08 04:35:55;;;;;;;;;;;;;;;12.54;62.42;100522.19;4971875;28;20012;-61
2022/10/08 04:38:21;;;;;;;;;;;;;;;12.55;62.38;100510.72;4973487;28;20017;-60
2022/10/08 04:40:46;;;;;;;;;;;;;;;12.68;62.09;100511.25;4973182;28;19925;-60
2022/10/08 04:43:12;;;;;;;;;;;;;;;12.69;62.00;100510.38;4972878;28;20330;-59
2022/10/08 04:45:44;;;;;;;;;;;;;;;12.70;62.00;100509.44;4972939;28;19922;-60
2022/10/08 04:48:10;;;;;;;;;;;;;;;12.73;61.66;100504.94;4975324;28;19922;-58
2022/10/08 04:50:35;;;;;;;;;;;;;;;12.76;61.69;100503.97;4972575;28;19928;-60
2022/10/08 04:53:00;;;;;;;;;;;;;;;12.69;61.82;100507.72;4970509;28;19922;-60
2022/10/08 04:55:26;;;;;;;;;;;;;;;12.57;62.21;100504.53;4973142;28;19922;-61
2022/10/08 04:57:51;;;;;;;;;;;;;;;12.61;62.17;100496.50;4976710;28;20333;-60
2022/10/08 05:00:16;;;;;;;;;;;;;;;12.69;62.18;100505.09;4978799;28;20021;-60
2022/10/08 05:02:42;;;;;;;;;;;;;;;12.71;62.02;100501.47;4977457;28;20381;-61
2022/10/08 05:05:07;;;;;;;;;;;;;;;12.72;62.23;100494.44;4978729;28;19918;-61
2022/10/08 05:07:32;;;;;;;;;;;;;;;12.74;62.28;100498.75;4978212;28;19918;-61
2022/10/08 05:09:58;;;;;;;;;;;;;;;12.80;62.05;100502.97;4978916;28;19949;-61
2022/10/08 05:12:23;;;;;;;;;;;;;;;12.82;62.10;100503.81;4977162;28;19928;-61
2022/10/08 05:14:48;;;;;;;;;;;;;;;12.86;61.96;100512.50;4978281;28;19929;-61
2022/10/08 05:17:14;;;;;;;;;;;;;;;12.90;61.91;100507.09;4976029;28;19922;-58
2022/10/08 05:19:39;;;;;;;;;;;;;;;12.90;62.00;100514.16;4978444;28;19926;-60
2022/10/08 05:22:04;;;;;;;;;;;;;;;13.03;62.04;100513.72;4974862;28;19962;-60
2022/10/08 05:24:30;;;;;;;;;;;;;;;13.22;61.57;100515.84;4978628;28;19918;-60
2022/10/08 05:26:55;;;;;;;;;;;;;;;13.32;61.18;100509.38;4979351;28;19922;-61
2022/10/08 05:29:20;;;;;;;;;;;;;;;13.42;60.91;100510.84;4972803;28;19944;-60
2022/10/08 05:31:46;;;;;;;;;;;;;;;13.48;60.77;100521.19;4977318;28;20017;-60
2022/10/08 05:34:12;;;;;;;;;;;;;;;13.65;60.30;100511.91;4978246;28;19925;-60
2022/10/08 05:36:37;;;;;;;;;;;;;;;13.72;60.22;100514.28;4978535;28;19926;-61
2022/10/08 05:39:04;;;;;;;;;;;;;;;13.88;59.68;100504.06;4978085;28;19969;-61
2022/10/08 05:41:30;;;;;;;;;;;;;;;13.98;59.60;100504.63;4977482;28;19918;-61
2022/10/08 05:43:56;;;;;;;;;;;;;;;14.07;59.09;100508.72;4976448;28;19926;-60
2022/10/08 05:46:23;;;;;;;;;;;;;;;14.21;58.73;100506.50;4977044;28;20460;-61
2022/10/08 05:48:51;;;;;;;;;;;;;;;14.33;58.42;100507.84;4976860;28;20369;-62
2022/10/08 05:51:16;;;;;;;;;;;;;;;14.42;58.26;100507.50;4980893;28;19918;-61
2022/10/08 05:53:46;;;;;;;;;;;;;;;14.47;57.97;100500.28;4978036;28;19921;-61
2022/10/08 05:56:11;;;;;;;;;;;;;;;14.43;58.33;100511.88;4978050;28;19942;-61
2022/10/08 05:58:38;;;;;;;;;;;;;;;14.40;58.59;100511.97;4977701;28;20004;-62
2022/10/08 06:01:05;;;;;;;;;;;;;;;14.47;58.31;100521.41;4984114;28;19922;-61
2022/10/08 06:03:30;;;;;;;;;;;;;;;14.51;58.09;100525.72;4978879;28;19921;-62
2022/10/08 06:06:00;;;;;;;;;;;;;;;14.59;57.96;100522.81;4981437;28;19925;-61
2022/10/08 06:08:25;;;;;;;;;;;;;;;14.61;57.81;100520.97;4971641;28;19924;-61
2022/10/08 06:10:51;;;;;;;;;;;;;;;14.64;58.39;100510.28;4985915;28;19921;-61
2022/10/08 06:13:17;;;;;;;;;;;;;;;14.74;58.04;100517.81;4977700;28;20290;-59
2022/10/08 06:15:42;;;;;;;;;;;;;;;14.86;57.80;100510.34;4984495;28;20021;-61
2022/10/08 06:18:07;;;;;;;;;;;;;;;14.93;57.35;100507.44;4978859;28;19969;-61
2022/10/08 06:20:35;;;;;;;;;;;;;;;14.97;57.51;100511.69;4979845;28;19969;-62
2022/10/08 06:23:00;;;;;;;;;;;;;;;15.07;57.24;100511.31;4975555;28;19926;-61
2022/10/08 06:25:25;;;;;;;;;;;;;;;15.12;57.64;100515.53;4988159;28;19944;-62
2022/10/08 06:27:51;;;;;;;;;;;;;;;15.24;57.07;100506.25;4979319;28;19922;-60
2022/10/08 06:30:16;;;;;;;;;;;;;;;15.44;56.75;100506.34;4976994;28;20116;-61
2022/10/08 06:32:41;;;;;;;;;;;;;;;15.59;56.26;100507.50;4973232;28;19929;-62
2022/10/08 06:35:07;;;;;;;;;;;;;;;15.89;56.19;100510.72;4982162;28;19918;-60
2022/10/08 06:37:32;;;;;;;;;;;;;;;15.97;55.60;100516.56;4980150;28;20009;-60
2022/10/08 06:39:57;;;;;;;;;;;;;;;16.25;55.94;100521.56;4977251;28;20374;-61
2022/10/08 06:42:22;;;;;;;;;;;;;;;16.47;54.76;100516.16;4975549;28;19918;-62
2022/10/08 06:44:48;;;;;;;;;;;;;;;16.73;55.34;100517.72;4976449;28;19962;-61
2022/10/08 06:47:13;;;;;;;;;;;;;;;16.97;54.67;100513.09;4973784;28;19922;-61
2022/10/08 06:49:39;;;;;;;;;;;;;;;17.14;54.04;100516.75;4974949;28;19922;-62
2022/10/08 06:52:05;;;;;;;;;;;;;;;17.31;53.63;100516.81;4991718;28;19922;-61
2022/10/08 06:54:30;;;;;;;;;;;;;;;17.42;53.79;100517.16;4975268;28;19918;-61
2022/10/08 06:56:55;;;;;;;;;;;;;;;17.35;52.61;100521.03;4975982;28;20290;-61
2022/10/08 06:59:21;;;;;;;;;;;;;;;17.42;52.93;100525.13;4977064;28;19918;-60
2022/10/08 07:01:46;;;;;;;;;;;;;;;17.18;54.33;100526.28;4978582;28;19922;-61
2022/10/08 07:04:11;;;;;;;;;;;;;;;17.35;52.23;100521.03;4976114;28;19918;-62
2022/10/08 07:06:36;;;;;;;;;;;;;;;17.43;54.25;100516.25;4975917;28;19914;-60
2022/10/08 07:09:02;;;;;;;;;;;;;;;17.44;52.71;100523.28;4975539;28;19914;-59
2022/10/08 07:11:29;;;;;;;;;;;;;;;17.51;52.92;100523.81;4975638;28;19925;-61
2022/10/08 07:13:54;;;;;;;;;;;;;;;17.61;53.39;100526.91;4975461;28;20331;-60
2022/10/08 07:16:21;;;;;;;;;;;;;;;17.69;52.25;100522.94;4975765;28;19954;-60
2022/10/08 07:18:48;;;;;;;;;;;;;;;17.71;52.24;100522.88;4976713;28;19925;-60
2022/10/08 07:21:15;;;;;;;;;;;;;;;17.54;52.01;100522.84;4975434;28;19941;-62
2022/10/08 07:23:40;;;;;;;;;;;;;;;17.56;52.97;100520.97;4976257;28;20413;-61
2022/10/08 07:26:08;;;;;;;;;;;;;;;17.81;54.21;100508.22;4978654;28;19946;-61
2022/10/08 07:28:35;;;;;;;;;;;;;;;17.97;52.31;100505.66;4976025;28;20293;-62
2022/10/08 07:31:07;;;;;;;;;;;;;;;17.93;51.67;100504.09;4975974;28;19972;-61
2022/10/08 07:33:32;;;;;;;;;;;;;;;17.84;51.54;100508.09;4976267;28;19918;-61
2022/10/08 07:36:04;;;;;;;;;;;;;;;17.98;51.80;100502.91;4975464;28;19918;-60
2022/10/08 07:38:30;;;;;;;;;;;;;;;18.09;51.41;100499.72;4972891;28;19930;-61
2022/10/08 07:40:55;;;;;;;;;;;;;;;18.32;51.13;100503.88;4974572;28;19914;-60
2022/10/08 07:43:20;;;;;;;;;;;;;;;18.42;51.14;100499.78;4974702;28;19922;-60
2022/10/08 07:45:46;;;;;;;;;;;;;;;18.55;51.34;100496.47;4975601;28;20389;-61
2022/10/08 07:48:11;;;;;;;;;;;;;;;18.60;50.49;100495.31;4968043;28;19972;-60
2022/10/08 07:50:36;;;;;;;;;;;;;;;18.68;50.13;100494.91;4971708;28;20298;-60
2022/10/08 07:53:02;;;;;;;;;;;;;;;18.70;50.44;100493.88;4974596;28;20302;-62
2022/10/08 07:55:28;;;;;;;;;;;;;;;18.73;49.79;100484.03;4974449;28;19918;-61
2022/10/08 07:57:53;;;;;;;;;;;;;;;18.40;49.76;100491.03;4981452;28;20353;-62
2022/10/08 08:00:18;;;;;;;;;;;;;;;18.72;50.84;100488.50;4974680;28;20285;-61
2022/10/08 08:02:46;;;;;;;;;;;;;;;18.89;51.41;100488.44;4974502;28;19922;-61
2022/10/08 08:05:11;;;;;;;;;;;;;;;19.14;49.81;100481.78;4978299;28;19925;-61
2022/10/08 08:07:37;;;;;;;;;;;;;;;19.48;50.21;100483.41;4975350;28;20294;-61
2022/10/08 08:10:02;;;;;;;;;;;;;;;19.76;48.93;100488.03;4975373;28;19925;-61
2022/10/08 08:12:28;;;;;;;;;;;;;;;20.09;48.74;100489.66;4975433;28;19922;-61
2022/10/08 08:14:53;;;;;;;;;;;;;;;20.09;46.62;100487.00;4975300;28;19926;-61
2022/10/08 08:17:18;;;;;;;;;;;;;;;20.03;46.65;100488.25;4975330;28;20385;-61
2022/10/08 08:19:44;;;;;;;;;;;;;;;20.19;46.53;100485.53;4975247;28;19918;-59
2022/10/08 08:22:09;;;;;;;;;;;;;;;20.27;46.57;100477.91;4975174;28;19929;-61
2022/10/08 08:24:34;;;;;;;;;;;;;;;20.68;47.42;100477.22;4985030;28;20366;-62
2022/10/08 08:26:59;;;;;;;;;;;;;;;21.22;44.75;100474.66;4981144;28;19922;-61
2022/10/08 08:29:25;;;;;;;;;;;;;;;21.02;46.45;100472.41;4984613;28;19924;-61
2022/10/08 08:31:50;;;;;;;;;;;;;;;20.71;48.72;100476.19;4983141;28;19976;-61
2022/10/08 08:34:20;;;;;;;;;;;;;;;20.60;45.96;100458.16;4991483;28;20374;-60
2022/10/08 08:36:47;;;;;;;;;;;;;;;20.64;47.90;100457.84;4975895;28;19926;-60
2022/10/08 08:39:23;;;;;;;;;;;;;;;20.77;48.06;100457.94;4984251;28;19918;-62
2022/10/08 08:42:02;;;;;;;;;;;;;;;21.73;48.28;100460.69;4972797;28;20016;-61
2022/10/08 08:44:36;;;;;;;;;;;;;;;21.33;48.26;100463.31;4977290;28;19957;-61
2022/10/08 08:47:11;;;;;;;;;;;;;;;21.22;47.58;100455.97;4970962;28;19918;-61
2022/10/08 08:49:41;;;;;;;;;;;;;;;21.33;46.67;100455.31;4984993;28;19958;-62
2022/10/08 08:52:07;;;;;;;;;;;;;;;21.31;45.52;100458.06;4973516;28;19918;-61
2022/10/08 08:54:32;;;;;;;;;;;;;;;21.27;45.40;100455.69;4987841;28;19920;-61
2022/10/08 08:57:08;;;;;;;;;;;;;;;21.34;45.83;100462.34;4980436;28;19926;-61
2022/10/08 08:59:38;;;;;;;;;;;;;;;21.31;47.59;100454.53;4979488;28;19933;-63
2022/10/08 09:02:10;;;;;;;;;;;;;;;21.45;48.65;100461.66;4978408;28;19953;-62
2022/10/08 09:04:36;;;;;;;;;;;;;;;21.46;47.00;100456.19;4988048;28;20001;-60
2022/10/08 09:07:04;;;;;;;;;;;;;;;21.31;46.56;100454.53;4976485;28;20004;-60
2022/10/08 09:09:35;;;;;;;;;;;;;;;21.42;47.33;100448.50;4984329;28;19921;-60
2022/10/08 09:12:03;;;;;;;;;;;;;;;21.48;46.56;100456.13;4969814;28;20318;-61
2022/10/08 09:14:35;;;;;;;;;;;;;;;21.52;48.13;100447.78;4974636;28;20362;-61
2022/10/08 09:17:11;;;;;;;;;;;;;;;21.85;45.36;100443.81;4979707;28;19925;-61
2022/10/08 09:19:38;;;;;;;;;;;;;;;22.07;46.18;100445.91;4967881;28;19918;-61
2022/10/08 09:22:08;;;;;;;;;;;;;;;22.25;46.47;100439.31;4960934;28;20017;-61
2022/10/08 09:24:33;;;;;;;;;;;;;;;22.34;46.57;100440.47;4970586;28;19961;-61
2022/10/08 09:26:59;;;;;;;;;;;;;;;21.87;44.43;100450.78;4981099;28;19961;-62
2022/10/08 09:29:32;;;;;;;;;;;;;;;22.00;44.91;100445.47;4986922;28;19921;-61
2022/10/08 09:31:58;;;;;;;;;;;;;;;22.07;45.67;100449.44;4968974;28;20356;-60
2022/10/08 09:34:23;;;;;;;;;;;;;;;21.86;46.02;100449.09;4984650;28;19925;-61
2022/10/08 09:36:53;;;;;;;;;;;;;;;21.70;45.15;100440.34;4976335;28;19922;-62
2022/10/08 09:39:23;;;;;;;;;;;;;;;21.85;46.29;100438.47;4977560;28;19918;-61
2022/10/08 09:42:07;;;;;;;;;;;;;;;22.04;47.48;100438.94;4973837;28;19965;-60
2022/10/08 09:44:38;;;;;;;;;;;;;;;22.02;44.96;100445.34;4989220;28;19929;-61
2022/10/08 09:47:04;;;;;;;;;;;;;;;22.26;46.34;100432.13;4977263;28;19945;-62
2022/10/08 09:49:31;;;;;;;;;;;;;;;22.37;45.58;100429.56;4977672;28;19972;-61
2022/10/08 09:51:58;;;;;;;;;;;;;;;22.40;45.80;100429.34;4979020;28;19947;-61
2022/10/08 09:54:26;;;;;;;;;;;;;;;22.31;45.14;100417.47;4978097;28;19914;-62
2022/10/08 09:56:58;;;;;;;;;;;;;;;22.34;45.56;100411.03;4977676;28;20382;-61
2022/10/08 09:59:26;;;;;;;;;;;;;;;22.50;45.82;100414.38;4978942;28;19922;-62
2022/10/08 10:01:52;;;;;;;;;;;;;;;22.65;46.04;100401.69;4977991;28;19941;-61
2022/10/08 10:04:39;;;;;;;;;;;;;;;22.67;45.37;100393.56;4977907;28;19918;-62
2022/10/08 10:07:04;;;;;;;;;;;;;;;22.61;45.63;100400.19;4977843;28;19921;-62
2022/10/08 10:09:41;;;;;;;;;;;;;;;22.73;45.16;100403.81;4977497;28;19918;-61
2022/10/08 10:12:16;;;;;;;;;;;;;;;22.81;45.76;100404.13;4980716;28;19918;-62
2022/10/08 10:14:47;;;;;;;;;;;;;;;22.73;44.43;100403.81;4981758;28;19922;-62
2022/10/08 10:17:17;;;;;;;;;;;;;;;23.00;44.73;100395.66;4977627;28;20000;-62
2022/10/08 10:19:46;;;;;;;;;;;;;;;23.11;45.65;100393.03;4977657;28;20362;-62
2022/10/08 10:22:18;;;;;;;;;;;;;;;23.16;45.88;100377.47;4977516;28;19921;-63
2022/10/08 10:24:50;;;;;;;;;;;;;;;23.14;45.02;100390.13;4977069;28;19918;-62
2022/10/08 10:27:23;;;;;;;;;;;;;;;23.33;45.41;100395.81;4976643;28;19922;-62
2022/10/08 10:29:48;;;;;;;;;;;;;;;23.29;44.50;100391.66;4968632;28;19918;-63
2022/10/08 10:32:16;;;;;;;;;;;;;;;23.41;45.09;100400.59;4977099;28;20390;-62
2022/10/08 10:34:44;;;;;;;;;;;;;;;23.34;45.00;100400.22;4979126;28;19924;-60
2022/10/08 10:37:12;;;;;;;;;;;;;;;23.59;44.59;100398.38;4981984;28;19922;-60
2022/10/08 10:40:12;;;;;;;;;;;;;;;23.65;44.81;100403.25;4993140;28;19933;-61
2022/10/08 10:42:54;;;;;;;;;;;;;;;24.72;42.01;100403.00;4975926;28;19933;-61
2022/10/08 10:45:25;;;;;;;;;;;;;;;23.88;43.32;100398.03;4980398;28;19922;-62
2022/10/08 10:47:50;;;;;;;;;;;;;;;23.53;44.06;100396.16;4974824;28;20270;-62
2022/10/08 10:50:21;;;;;;;;;;;;;;;23.65;44.64;100394.38;4977418;28;19928;-61
2022/10/08 10:53:16;;;;;;;;;;;;;;;23.82;43.76;100394.00;4976538;28;20381;-61
2022/10/08 10:55:47;;;;;;;;;;;;;;;23.71;43.08;100392.13;4964535;28;20377;-61
2022/10/08 10:58:48;;;;;;;;;;;;;;;23.87;43.77;100397.16;4975535;28;19918;-62
2022/10/08 11:01:22;;;;;;;;;;;;;;;23.96;42.83;100390.22;4939656;29;19918;-61
2022/10/08 11:03:47;;;;;;;;;;;;;;;24.04;43.23;100383.28;4970000;28;19961;-60
2022/10/08 11:06:18;;;;;;;;;;;;;;;23.97;44.47;100386.56;4985461;28;20015;-62
2022/10/08 11:08:57;;;;;;;;;;;;;;;24.66;42.11;100382.03;4975761;28;19925;-62
2022/10/08 11:11:45;;;;;;;;;;;;;;;24.74;42.26;100378.72;4976289;28;19921;-62
2022/10/08 11:14:30;;;;;;;;;;;;;;;24.85;42.68;100376.00;4969000;28;19918;-62
2022/10/08 11:17:17;;;;;;;;;;;;;;;24.58;41.46;100371.03;4971074;28;19922;-61
2022/10/08 11:19:58;;;;;;;;;;;;;;;24.54;42.21;100378.47;4978152;28;19918;-62
2022/10/08 11:22:29;;;;;;;;;;;;;;;24.26;41.97;100374.41;4976396;28;19960;-61
2022/10/08 11:25:05;;;;;;;;;;;;;;;24.38;42.51;100374.41;4977072;28;19918;-62
2022/10/08 11:27:49;;;;;;;;;;;;;;;24.00;43.01;100372.91;4977504;28;19922;-60
2022/10/08 11:30:30;;;;;;;;;;;;;;;23.56;43.97;100371.78;4977479;28;20017;-61
2022/10/08 11:32:56;;;;;;;;;;;;;;;23.53;44.32;100372.88;4972737;28;19918;-61
2022/10/08 11:35:31;;;;;;;;;;;;;;;23.58;44.76;100361.81;4982560;28;20008;-61
2022/10/08 11:38:15;;;;;;;;;;;;;;;23.47;43.56;100364.47;4980031;28;19964;-62
2022/10/08 11:40:48;;;;;;;;;;;;;;;23.51;43.83;100360.56;4976062;28;19921;-62
2022/10/08 11:43:29;;;;;;;;;;;;;;;23.62;45.05;100357.94;4975734;28;19914;-61
2022/10/08 11:46:13;;;;;;;;;;;;;;;23.67;43.66;100369.19;4975705;28;20397;-62
2022/10/08 11:48:39;;;;;;;;;;;;;;;23.66;45.15;100366.59;4976019;28;19920;-62
2022/10/08 11:51:19;;;;;;;;;;;;;;;23.40;43.77;100365.88;4975942;28;20016;-60
2022/10/08 11:53:56;;;;;;;;;;;;;;;23.56;44.39;100361.06;4975812;28;20004;-61
2022/10/08 11:56:23;;;;;;;;;;;;;;;23.35;44.19;100359.03;4975801;28;19921;-62
2022/10/08 11:58:52;;;;;;;;;;;;;;;22.92;44.08;100372.09;4976060;28;19941;-61
2022/10/08 12:01:17;;;;;;;;;;;;;;;23.00;45.73;100371.53;4990955;28;20251;-61
2022/10/08 12:03:44;;;;;;;;;;;;;;;22.95;44.53;100374.56;4995383;28;19968;-60
2022/10/08 12:06:24;;;;;;;;;;;;;;;22.88;43.86;100365.22;4986358;28;19973;-62
2022/10/08 12:08:49;;;;;;;;;;;;;;;22.99;44.82;100368.00;4975672;28;19961;-60
2022/10/08 12:11:39;;;;;;;;;;;;;;;22.76;43.35;100356.25;4975499;28;19961;-61
2022/10/08 12:14:10;;;;;;;;;;;;;;;22.48;43.69;100359.22;4975650;28;20366;-62
2022/10/08 12:16:59;;;;;;;;;;;;;;;22.75;44.49;100362.59;4975374;28;19918;-62
2022/10/08 12:19:33;;;;;;;;;;;;;;;22.78;44.23;100358.81;4950054;29;20262;-60
2022/10/08 12:21:58;;;;;;;;;;;;;;;22.80;43.71;100360.41;4956225;28;20009;-61
2022/10/08 12:24:36;;;;;;;;;;;;;;;22.24;44.28;100369.84;4955955;29;20343;-61
2022/10/08 12:27:33;;;;;;;;;;;;;;;22.31;45.65;100366.63;4956125;29;19918;-62
2022/10/08 12:29:59;;;;;;;;;;;;;;;22.22;44.92;100364.59;4933653;29;19914;-61
2022/10/08 12:32:32;;;;;;;;;;;;;;;22.37;45.45;100366.16;4956065;28;19921;-60
2022/10/08 12:34:58;;;;;;;;;;;;;;;22.15;45.80;100363.31;4955998;29;19964;-61
2022/10/08 12:37:32;;;;;;;;;;;;;;;22.46;44.21;100359.34;4956420;28;19914;-62
2022/10/08 12:40:02;;;;;;;;;;;;;;;22.55;44.14;100352.47;4955942;29;19914;-60
2022/10/08 12:42:30;;;;;;;;;;;;;;;22.79;43.40;100355.19;4955809;29;20370;-61
2022/10/08 12:44:56;;;;;;;;;;;;;;;23.42;42.56;100358.56;4955999;28;20005;-61